Time;durP1;ratioP1;P1;durP2;ratioP2;P2;SDS_P1;SDS_P2;PMS_P1;PMS_P2;Temp;Humidity;BMP_temperature;BMP_pressure;BME280_temperature;BME280_humidity;BME280_pressure;Samples;Min_cycle;Max_cycle;Signal;HPM_P1;HPM_P2
2022/02/24 00:02:08;;;;;;;17.63;3.53;;;3.90;99.90;;;;;;5001941;28;20177;-83
2022/02/24 00:04:34;;;;;;;14.20;3.97;;;3.90;99.90;;;;;;5017775;28;20188;-83
2022/02/24 00:07:00;;;;;;;18.80;4.30;;;3.90;99.90;;;;;;5017387;28;20719;-83
2022/02/24 00:09:26;;;;;;;16.53;4.43;;;3.90;99.90;;;;;;5017797;28;20762;-83
2022/02/24 00:11:51;;;;;;;16.43;4.47;;;4.10;99.90;;;;;;5034928;28;20581;-84
2022/02/24 00:14:17;;;;;;;19.67;4.73;;;4.00;99.90;;;;;;5035013;28;20183;-84
2022/02/24 00:16:43;;;;;;;19.83;5.10;;;3.90;99.90;;;;;;5017346;28;20305;-84
2022/02/24 00:19:09;;;;;;;13.77;4.23;;;;;;;;;;5034869;28;20184;-84
2022/02/24 00:21:35;;;;;;;13.30;4.53;;;3.70;99.90;;;;;;5034889;28;20192;-84
2022/02/24 00:24:01;;;;;;;16.27;3.70;;;3.70;99.90;;;;;;5035626;28;20292;-84
2022/02/24 00:26:27;;;;;;;19.97;4.40;;;3.70;99.90;;;;;;5016940;28;20184;-84
2022/02/24 00:28:52;;;;;;;20.37;4.97;;;3.70;99.90;;;;;;5036709;28;20184;-84
2022/02/24 00:31:19;;;;;;;15.67;4.57;;;3.70;99.90;;;;;;5055879;28;20207;-83
2022/02/24 00:33:44;;;;;;;14.67;4.27;;;3.60;99.90;;;;;;5022198;28;20580;-82
2022/02/24 00:36:10;;;;;;;15.63;4.27;;;5.00;99.90;;;;;;5025343;28;20211;-88
2022/02/24 00:38:36;;;;;;;11.37;4.27;;;3.60;99.90;;;;;;5009731;28;20167;-83
2022/02/24 00:41:01;;;;;;;15.67;3.80;;;4.70;99.90;;;;;;5059225;28;20206;-84
2022/02/24 00:43:27;;;;;;;22.83;5.67;;;3.50;99.90;;;;;;5009443;28;20173;-83
2022/02/24 00:45:53;;;;;;;20.00;6.13;;;4.20;99.90;;;;;;5058757;28;20174;-82
2022/02/24 00:48:18;;;;;;;17.83;5.30;;;3.70;99.90;;;;;;5057802;28;20198;-83
2022/02/24 00:50:44;;;;;;;18.27;5.10;;;3.50;99.90;;;;;;5041791;28;20168;-85
2022/02/24 00:53:10;;;;;;;14.60;4.90;;;4.00;99.90;;;;;;5042154;28;20197;-92
2022/02/24 00:55:40;;;;;;;17.43;4.27;;;3.50;99.90;;;;;;5041763;28;20211;-83
2022/02/24 00:58:06;;;;;;;20.13;4.93;;;3.50;99.90;;;;;;5054468;28;20182;-84
2022/02/24 01:00:31;;;;;;;20.03;4.67;;;3.50;99.90;;;;;;5019803;28;20194;-82
2022/02/24 01:02:57;;;;;;;17.80;4.17;;;3.40;99.90;;;;;;5017380;28;20550;-82
2022/02/24 01:05:23;;;;;;;15.30;4.43;;;4.40;99.90;;;;;;5035093;28;20656;-83
2022/02/24 01:07:48;;;;;;;19.00;4.60;;;3.90;99.90;;;;;;5017063;28;20180;-83
2022/02/24 01:10:14;;;;;;;22.10;4.57;;;;;;;;;;5016276;28;20223;-82
2022/02/24 01:12:40;;;;;;;12.40;4.97;;;3.20;99.90;;;;;;5016585;28;20176;-82
2022/02/24 01:15:08;;;;;;;21.00;5.33;;;3.20;99.90;;;;;;5016320;28;20559;-84
2022/02/24 01:17:39;;;;;;;15.53;4.20;;;3.10;99.90;;;;;;5034014;28;20594;-83
2022/02/24 01:20:07;;;;;;;14.03;4.70;;;3.10;99.90;;;;;;5017081;28;20621;-84
2022/02/24 01:22:32;;;;;;;23.03;5.33;;;3.00;99.90;;;;;;5033723;28;20183;-84
2022/02/24 01:24:58;;;;;;;13.13;4.17;;;3.10;99.90;;;;;;5000633;28;20186;-84
2022/02/24 01:27:24;;;;;;;19.30;5.63;;;2.90;99.90;;;;;;5035627;28;20224;-84
2022/02/24 01:29:50;;;;;;;22.33;6.03;;;2.80;99.90;;;;;;5017855;28;20613;-84
2022/02/24 01:32:16;;;;;;;21.03;5.23;;;2.80;99.90;;;;;;5033625;28;20174;-84
2022/02/24 01:34:42;;;;;;;16.90;4.90;;;2.80;99.90;;;;;;5015961;28;20305;-83
2022/02/24 01:37:08;;;;;;;16.50;4.80;;;2.70;99.90;;;;;;4999659;28;20276;-83
2022/02/24 01:39:34;;;;;;;16.90;4.43;;;3.40;99.90;;;;;;5033343;28;20266;-83
2022/02/24 01:42:00;;;;;;;16.33;5.13;;;2.60;99.90;;;;;;5015690;28;20293;-83
2022/02/24 01:44:25;;;;;;;19.47;5.97;;;2.60;99.90;;;;;;5033365;28;20598;-83
2022/02/24 01:46:51;;;;;;;15.73;5.10;;;2.50;99.90;;;;;;5015595;28;20185;-83
2022/02/24 01:49:20;;;;;;;25.97;6.90;;;3.00;99.90;;;;;;5015512;28;20658;-83
2022/02/24 01:51:47;;;;;;;20.93;5.53;;;2.40;99.90;;;;;;5033324;28;20179;-84
2022/02/24 01:54:12;;;;;;;13.90;5.73;;;2.30;99.90;;;;;;5033170;28;20200;-83
2022/02/24 01:56:38;;;;;;;16.00;6.07;;;4.00;99.90;;;;;;4999508;28;20277;-83
2022/02/24 01:59:04;;;;;;;24.93;7.27;;;2.30;99.90;;;;;;5017198;28;20189;-83
2022/02/24 02:01:30;;;;;;;25.47;8.63;;;2.20;99.90;;;;;;4982827;28;20223;-83
2022/02/24 02:03:55;;;;;;;21.80;7.33;;;2.60;99.90;;;;;;5016383;28;20183;-83
2022/02/24 02:06:25;;;;;;;30.57;8.90;;;2.20;99.90;;;;;;5015368;28;20201;-83
2022/02/24 02:08:51;;;;;;;21.97;8.17;;;2.50;99.90;;;;;;4999488;28;20191;-83
2022/02/24 02:11:16;;;;;;;21.07;8.90;;;2.10;99.90;;;;;;5000029;28;20183;-84
2022/02/24 02:13:42;;;;;;;30.77;9.33;;;2.10;99.90;;;;;;5001154;28;20188;-83
2022/02/24 02:16:09;;;;;;;25.83;10.40;;;3.60;99.90;;;;;;5019374;28;20216;-84
2022/02/24 02:18:35;;;;;;;21.97;8.80;;;3.50;99.90;;;;;;5019369;28;20186;-83
2022/02/24 02:21:01;;;;;;;23.60;8.63;;;4.10;99.90;;;;;;5037175;28;20180;-83
2022/02/24 02:23:27;;;;;;;32.73;10.67;;;3.60;99.90;;;;;;5037579;28;20268;-84
2022/02/24 02:25:53;;;;;;;23.23;8.30;;;2.40;99.90;;;;;;5020503;28;20240;-83
2022/02/24 02:28:18;;;;;;;27.50;10.33;;;3.70;99.90;;;;;;5019715;28;20232;-83
2022/02/24 02:30:45;;;;;;;27.40;9.63;;;2.00;99.90;;;;;;5037451;28;20256;-83
2022/02/24 02:33:11;;;;;;;30.30;9.70;;;3.70;99.90;;;;;;5037041;28;20184;-83
2022/02/24 02:35:37;;;;;;;28.83;10.87;;;1.90;99.90;;;;;;5036822;28;20670;-83
2022/02/24 02:38:04;;;;;;;35.17;10.50;;;1.90;99.90;;;;;;5037806;28;20215;-83
2022/02/24 02:40:34;;;;;;;33.77;11.37;;;2.00;99.90;;;;;;5018979;28;20187;-83
2022/02/24 02:43:00;;;;;;;29.90;10.87;;;3.40;99.90;;;;;;5019676;28;20174;-83
2022/02/24 02:45:25;;;;;;;24.93;10.23;;;2.30;99.90;;;;;;5019117;28;20189;-83
2022/02/24 02:47:51;;;;;;;29.67;9.60;;;2.50;99.90;;;;;;5036857;28;20177;-83
2022/02/24 02:50:17;;;;;;;18.60;8.93;;;2.90;99.90;;;;;;5036574;28;20204;-83
2022/02/24 02:52:43;;;;;;;30.23;9.13;;;4.00;99.90;;;;;;5018854;28;20185;-83
2022/02/24 02:55:11;;;;;;;18.50;9.03;;;3.00;99.90;;;;;;5019201;28;20208;-83
2022/02/24 02:57:38;;;;;;;26.23;9.57;;;1.90;99.90;;;;;;5037212;28;20191;-83
2022/02/24 03:00:07;;;;;;;20.70;8.07;;;1.90;99.90;;;;;;5019638;28;20592;-83
2022/02/24 03:02:33;;;;;;;20.50;8.33;;;1.90;99.90;;;;;;5020168;28;20252;-83
2022/02/24 03:04:59;;;;;;;24.63;8.83;;;1.90;99.90;;;;;;5018833;28;20221;-83
2022/02/24 03:07:25;;;;;;;22.17;8.83;;;2.00;99.90;;;;;;5002352;28;20700;-84
2022/02/24 03:09:50;;;;;;;25.03;8.93;;;3.30;99.90;;;;;;5018812;28;20270;-83
2022/02/24 03:12:16;;;;;;;26.73;9.00;;;2.00;99.90;;;;;;5019093;28;20188;-84
2022/02/24 03:14:42;;;;;;;20.40;8.43;;;2.20;99.90;;;;;;5036507;28;20215;-83
2022/02/24 03:17:08;;;;;;;22.80;8.77;;;3.50;99.90;;;;;;5018956;28;20180;-83
2022/02/24 03:19:34;;;;;;;28.07;8.97;;;1.90;99.90;;;;;;5036799;28;20191;-83
2022/02/24 03:22:00;;;;;;;21.33;7.83;;;1.80;99.90;;;;;;5018778;28;20651;-83
2022/02/24 03:24:26;;;;;;;25.50;9.30;;;3.50;99.90;;;;;;5019555;28;20195;-83
2022/02/24 03:26:52;;;;;;;24.83;8.47;;;1.70;99.90;;;;;;5017578;28;20234;-83
2022/02/24 03:29:18;;;;;;;20.90;6.87;;;1.70;99.90;;;;;;5035886;28;20184;-83
2022/02/24 03:31:44;;;;;;;17.63;7.53;;;1.70;99.90;;;;;;5018011;28;20180;-83
2022/02/24 03:34:11;;;;;;;22.63;7.70;;;2.40;99.90;;;;;;5036100;28;20230;-83
2022/02/24 03:36:37;;;;;;;21.87;7.67;;;2.90;99.90;;;;;;5035230;28;20207;-83
2022/02/24 03:39:04;;;;;;;22.27;7.53;;;1.60;99.90;;;;;;5017966;28;20646;-82
2022/02/24 03:41:30;;;;;;;17.43;6.93;;;2.80;99.90;;;;;;5035689;28;20185;-82
2022/02/24 03:43:56;;;;;;;18.80;7.00;;;1.60;99.90;;;;;;5018078;28;20187;-83
2022/02/24 03:46:22;;;;;;;20.80;7.53;;;3.30;99.90;;;;;;5017755;28;20245;-83
2022/02/24 03:48:48;;;;;;;29.13;8.20;;;2.10;99.90;;;;;;5017534;28;20191;-84
2022/02/24 03:51:15;;;;;;;22.67;7.37;;;1.40;99.90;;;;;;5035283;28;20679;-85
2022/02/24 03:53:41;;;;;;;20.70;7.63;;;1.40;99.90;;;;;;5017644;28;20529;-84
2022/02/24 03:56:07;;;;;;;17.43;7.30;;;1.40;99.90;;;;;;5035063;28;20215;-84
2022/02/24 03:58:32;;;;;;;18.00;7.67;;;1.50;99.90;;;;;;5035703;28;20189;-84
2022/02/24 04:00:58;;;;;;;14.83;6.87;;;3.00;99.90;;;;;;5017775;28;20189;-84
2022/02/24 04:03:24;;;;;;;23.43;7.93;;;4.00;99.90;;;;;;5017520;28;20185;-85
2022/02/24 04:05:50;;;;;;;23.43;8.10;;;1.60;99.90;;;;;;5034866;28;20184;-86
2022/02/24 04:08:15;;;;;;;24.67;7.77;;;3.70;99.90;;;;;;5017635;28;20183;-85
2022/02/24 04:10:41;;;;;;;23.27;8.03;;;3.40;99.90;;;;;;5000912;28;20188;-85
2022/02/24 04:13:07;;;;;;;20.53;7.50;;;1.20;99.90;;;;;;4984770;28;20188;-85
2022/02/24 04:15:33;;;;;;;23.37;8.27;;;1.20;99.90;;;;;;5034820;28;20664;-85
2022/02/24 04:17:58;;;;;;;25.20;8.37;;;3.30;99.90;;;;;;5017059;28;20188;-84
2022/02/24 04:20:24;;;;;;;30.70;8.67;;;4.00;99.90;;;;;;5034554;28;20177;-84
2022/02/24 04:22:50;;;;;;;20.47;8.27;;;1.70;99.90;;;;;;5017182;28;20188;-84
2022/02/24 04:25:15;;;;;;;25.77;9.10;;;1.10;99.90;;;;;;5017279;28;20184;-84
2022/02/24 04:27:49;;;;;;;36.87;8.77;;;1.10;99.90;;;;;;5016697;28;20599;-84
2022/02/24 04:30:16;;;;;;;25.07;8.63;;;1.00;99.90;;;;;;5034692;28;20177;-85
2022/02/24 04:32:42;;;;;;;27.37;9.10;;;2.10;99.90;;;;;;5034051;28;20212;-86
2022/02/24 04:35:09;;;;;;;21.30;9.03;;;3.20;99.90;;;;;;5017269;28;20208;-85
2022/02/24 04:37:35;;;;;;;29.73;8.27;;;2.90;99.90;;;;;;5033073;28;20185;-86
2022/02/24 04:40:02;;;;;;;26.33;8.67;;;0.90;99.90;;;;;;5000079;28;20199;-85
2022/02/24 04:42:28;;;;;;;24.57;7.67;;;0.80;99.90;;;;;;5050236;28;20231;-85
2022/02/24 04:44:54;;;;;;;20.33;8.10;;;0.80;99.90;;;;;;5042108;28;20232;-83
2022/02/24 04:47:20;;;;;;;26.73;9.43;;;;;;;;;;5052037;28;20192;-82
2022/02/24 04:49:46;;;;;;;25.93;8.63;;;;;;;;;;5042971;28;20188;-83
2022/02/24 04:52:12;;;;;;;22.37;9.73;;;;;;;;;;5043423;28;20238;-87
2022/02/24 04:54:38;;;;;;;41.13;14.73;;;;;;;;;;5041996;28;20196;-82
2022/02/24 04:57:04;;;;;;;33.87;13.43;;;;;;;;;;5046007;28;20188;-84
2022/02/24 04:59:30;;;;;;;33.47;12.87;;;;;;;;;;5046766;28;21053;-83
2022/02/24 05:01:56;;;;;;;38.83;14.17;;;0.40;99.90;;;;;;5018124;28;20189;-83
2022/02/24 05:04:22;;;;;;;33.27;12.47;;;;;;;;;;5035780;28;20196;-84
2022/02/24 05:06:48;;;;;;;40.17;16.03;;;0.30;99.90;;;;;;5037380;28;20527;-85
2022/02/24 05:09:13;;;;;;;31.60;12.70;;;0.30;99.90;;;;;;5012584;28;20187;-85
2022/02/24 05:11:39;;;;;;;28.43;12.03;;;0.90;99.90;;;;;;5008395;28;20275;-87
2022/02/24 05:14:05;;;;;;;61.53;22.30;;;2.30;99.90;;;;;;4998484;28;20223;-84
2022/02/24 05:16:31;;;;;;;26.47;11.07;;;;;;;;;;5031326;28;20223;-86
2022/02/24 05:18:56;;;;;;;40.60;13.93;;;0.10;99.90;;;;;;5020159;28;20200;-84
2022/02/24 05:21:22;;;;;;;48.67;20.93;;;;;;;;;;5034361;28;20191;-87
2022/02/24 05:23:48;;;;;;;49.70;19.00;;;;;;;;;;5030087;28;20191;-84
2022/02/24 05:26:14;;;;;;;40.03;16.17;;;;;;;;;;5024976;28;20196;-83
2022/02/24 05:28:40;;;;;;;47.87;18.77;;;;;;;;;;5024460;28;20327;-85
2022/02/24 05:31:06;;;;;;;62.77;23.23;;;;;;;;;;5050022;28;20222;-84
2022/02/24 05:33:34;;;;;;;60.97;21.57;;;;;;;;;;5028006;28;20188;-85
2022/02/24 05:36:01;;;;;;;64.07;22.43;;;-0.10;99.90;;;;;;5035926;28;20391;-85
2022/02/24 05:38:28;;;;;;;66.03;22.33;;;;;;;;;;5024236;28;20188;-85
2022/02/24 05:40:53;;;;;;;59.50;21.43;;;-0.20;99.90;;;;;;5018315;28;20196;-87
2022/02/24 05:43:19;;;;;;;57.90;20.57;;;-0.20;99.90;;;;;;5020343;28;20196;-86
2022/02/24 05:45:45;;;;;;;54.87;20.07;;;0.40;99.90;;;;;;5043814;28;20263;-85
2022/02/24 05:48:12;;;;;;;72.23;25.67;;;;;;;;;;5033650;28;20199;-87
2022/02/24 05:50:38;;;;;;;104.27;35.03;;;-0.30;99.90;;;;;;5016445;28;20234;-86
2022/02/24 05:53:04;;;;;;;109.50;37.60;;;1.80;99.90;;;;;;5037717;28;20217;-85
2022/02/24 05:55:34;;;;;;;86.80;30.73;;;-0.20;99.90;;;;;;5024504;28;20207;-85
2022/02/24 05:58:00;;;;;;;84.63;31.47;;;;;;;;;;5042075;28;20188;-85
2022/02/24 06:00:26;;;;;;;92.00;32.83;;;;;;;;;;5051296;28;20183;-84
2022/02/24 06:02:52;;;;;;;97.40;32.17;;;;;;;;;;5053341;28;20179;-85
2022/02/24 06:05:18;;;;;;;93.43;33.23;;;;;;;;;;5053325;28;20179;-86
2022/02/24 06:07:44;;;;;;;66.97;26.50;;;;;;;;;;5052017;28;20187;-86
2022/02/24 06:10:14;;;;;;;79.43;28.10;;;-0.50;99.90;;;;;;5051821;28;20259;-85
2022/02/24 06:12:40;;;;;;;62.63;22.43;;;;;;;;;;5035147;28;20186;-86
2022/02/24 06:15:08;;;;;;;43.07;18.97;;;-0.20;99.90;;;;;;5051370;28;20717;-86
2022/02/24 06:17:35;;;;;;;48.17;17.33;;;;;;;;;;5053437;28;20183;-86
2022/02/24 06:20:01;;;;;;;35.97;15.93;;;;;;;;;;5051773;28;20199;-86
2022/02/24 06:22:27;;;;;;;51.87;19.63;;;;;;;;;;5051804;28;20192;-86
2022/02/24 06:24:53;;;;;;;67.60;23.40;;;;;;;;;;5018479;28;20648;-84
2022/02/24 06:27:19;;;;;;;52.83;20.43;;;;;;;;;;5035178;28;20239;-86
2022/02/24 06:29:46;;;;;;;44.27;16.37;;;0.30;99.90;;;;;;5034348;28;20187;-87
2022/02/24 06:32:13;;;;;;;41.60;18.67;;;;;;;;;;5053020;28;20176;-86
2022/02/24 06:34:43;;;;;;;32.33;15.00;;;0.50;99.90;;;;;;5051917;28;20208;-85
2022/02/24 06:37:09;;;;;;;37.90;14.67;;;0.60;99.90;;;;;;5050459;28;20184;-86
2022/02/24 06:39:36;;;;;;;48.87;16.53;;;0.70;99.90;;;;;;5034952;28;20182;-88
2022/02/24 06:42:02;;;;;;;35.67;15.33;;;;;;;;;;5001887;28;20697;-85
2022/02/24 06:44:29;;;;;;;51.67;16.63;;;;;;;;;;5053023;28;20221;-86
2022/02/24 06:46:55;;;;;;;36.03;11.33;;;0.80;99.90;;;;;;5020235;28;20180;-87
2022/02/24 06:49:21;;;;;;;31.50;13.47;;;0.80;99.90;;;;;;5059352;28;20195;-88
2022/02/24 06:51:54;;;;;;;36.90;13.83;;;1.20;99.90;;;;;;5060091;28;20187;-86
2022/02/24 06:54:21;;;;;;;35.17;12.77;;;;;;;;;;5060694;28;20168;-86
2022/02/24 06:56:47;;;;;;;38.07;12.40;;;;;;;;;;5077019;28;20239;-88
2022/02/24 06:59:13;;;;;;;39.50;11.83;;;;;;;;;;5059885;28;20204;-87
2022/02/24 07:01:39;;;;;;;29.57;10.53;;;;;;;;;;5078515;28;20180;-87
2022/02/24 07:04:05;;;;;;;35.47;11.43;;;1.40;99.90;;;;;;5080842;28;20194;-87
2022/02/24 07:06:30;;;;;;;41.67;15.87;;;1.70;99.90;;;;;;5063205;28;20240;-87
2022/02/24 07:08:58;;;;;;;43.90;16.67;;;1.50;99.90;;;;;;5063567;28;20183;-89
2022/02/24 07:11:23;;;;;;;44.73;17.10;;;3.70;99.90;;;;;;5064109;28;20184;-89
2022/02/24 07:13:49;;;;;;;45.40;18.40;;;;;;;;;;5063263;28;20192;-89
2022/02/24 07:16:15;;;;;;;50.70;19.83;;;;;;;;;;5046822;28;20210;-87
2022/02/24 07:18:42;;;;;;;41.33;15.23;;;;;;;;;;5062844;28;20208;-86
2022/02/24 07:21:08;;;;;;;39.63;13.73;;;;;;;;;;5045374;28;20259;-86
2022/02/24 07:23:34;;;;;;;35.73;12.03;;;;;;;;;;5025064;28;20187;-85
2022/02/24 07:26:01;;;;;;;29.70;13.10;;;;;;;;;;5061713;28;20180;-85
2022/02/24 07:28:27;;;;;;;33.53;12.60;;;;;;;;;;5058989;28;20630;-86
2022/02/24 07:30:53;;;;;;;39.67;13.10;;;;;;;;;;5045350;28;20183;-85
2022/02/24 07:33:18;;;;;;;42.43;15.30;;;2.30;99.90;;;;;;5056660;28;20179;-85
2022/02/24 07:35:44;;;;;;;54.13;20.97;;;2.40;99.90;;;;;;5005342;28;20221;-90
2022/02/24 07:38:10;;;;;;;32.97;13.57;;;;;;;;;;5037838;28;20192;-86
2022/02/24 07:40:36;;;;;;;39.50;16.73;;;2.40;99.90;;;;;;5038052;28;20180;-86
2022/02/24 07:43:02;;;;;;;37.67;14.67;;;2.50;99.90;;;;;;5055665;28;20247;-87
2022/02/24 07:45:27;;;;;;;34.30;15.20;;;2.60;99.90;;;;;;5022679;28;20235;-88
2022/02/24 07:47:54;;;;;;;32.83;14.37;;;2.70;99.90;;;;;;5022475;28;20192;-87
2022/02/24 07:50:19;;;;;;;36.07;14.70;;;2.70;99.90;;;;;;5040342;28;20288;-88
2022/02/24 07:52:46;;;;;;;34.97;13.83;;;2.80;99.90;;;;;;5042598;28;20221;-89
2022/02/24 07:55:13;;;;;;;30.90;11.80;;;3.40;99.90;;;;;;5024663;28;20250;-86
2022/02/24 07:57:40;;;;;;;27.23;10.70;;;3.00;99.90;;;;;;5058256;28;20218;-86
2022/02/24 08:00:07;;;;;;;26.90;11.70;;;3.00;99.90;;;;;;5040684;28;20209;-86
2022/02/24 08:02:33;;;;;;;29.37;12.90;;;3.40;99.90;;;;;;5060117;28;20187;-86
2022/02/24 08:05:00;;;;;;;32.10;13.47;;;3.20;99.90;;;;;;5039530;28;20188;-87
2022/02/24 08:07:25;;;;;;;30.10;12.57;;;3.20;99.90;;;;;;5041310;28;20211;-87
2022/02/24 08:09:51;;;;;;;36.17;13.63;;;3.30;99.90;;;;;;5008375;28;20192;-88
2022/02/24 08:15:02;;;;;;;36.17;16.07;;;3.40;99.90;;;;;;5041173;28;20695;-87
2022/02/24 08:17:27;;;;;;;33.47;14.03;;;3.50;99.90;;;;;;5057487;28;20180;-86
2022/02/24 08:19:53;;;;;;;40.13;13.13;;;3.50;99.90;;;;;;5006658;28;20208;-85
2022/02/24 08:22:18;;;;;;;36.60;13.07;;;3.40;99.90;;;;;;5039833;28;20261;-85
2022/02/24 08:24:44;;;;;;;33.00;13.17;;;4.30;99.90;;;;;;5037705;28;20194;-85
2022/02/24 08:27:10;;;;;;;38.53;14.47;;;3.70;99.90;;;;;;5056216;28;20310;-87
2022/02/24 08:29:36;;;;;;;75.33;25.83;;;;;;;;;;5024935;28;20702;-86
2022/02/24 08:32:01;;;;;;;37.80;13.57;;;3.80;99.90;;;;;;5055756;28;20693;-87
2022/02/24 08:34:27;;;;;;;29.73;11.93;;;3.90;99.90;;;;;;5039721;28;20231;-87
2022/02/24 08:36:53;;;;;;;33.80;12.73;;;4.00;99.90;;;;;;5024008;28;20230;-86
2022/02/24 08:39:23;;;;;;;24.13;10.17;;;4.60;99.90;;;;;;5021795;28;20242;-87
2022/02/24 08:41:50;;;;;;;27.23;11.63;;;4.20;99.90;;;;;;5039851;28;20271;-87
2022/02/24 08:44:16;;;;;;;33.90;12.83;;;4.30;99.90;;;;;;5041111;28;20191;-87
2022/02/24 08:46:43;;;;;;;29.30;9.97;;;4.30;99.90;;;;;;5038065;28;20277;-87
2022/02/24 08:49:08;;;;;;;25.50;9.60;;;5.20;99.90;;;;;;5036490;28;20240;-87
2022/02/24 08:51:34;;;;;;;35.20;12.30;;;4.30;99.90;;;;;;5036959;28;20658;-87
2022/02/24 08:54:00;;;;;;;34.20;10.53;;;4.40;99.90;;;;;;5037400;28;20690;-87
2022/02/24 08:56:25;;;;;;;41.90;13.77;;;4.50;99.90;;;;;;5054144;28;20572;-88
2022/02/24 08:58:51;;;;;;;35.17;14.90;;;4.60;99.90;;;;;;5054556;28;20184;-87
2022/02/24 09:01:17;;;;;;;38.17;14.20;;;4.60;99.90;;;;;;5036254;28;20188;-86
2022/02/24 09:03:42;;;;;;;36.83;12.43;;;4.70;99.90;;;;;;5020155;28;20662;-86
2022/02/24 09:06:08;;;;;;;41.17;13.83;;;4.80;99.90;;;;;;5036584;28;20225;-86
2022/02/24 09:08:34;;;;;;;55.33;16.80;;;4.90;99.90;;;;;;5036525;28;20267;-85
2022/02/24 09:11:00;;;;;;;34.73;11.33;;;4.90;99.90;;;;;;5036663;28;20209;-89
2022/02/24 09:13:26;;;;;;;46.47;14.13;;;;;;;;;;5020007;28;20240;-86
2022/02/24 09:15:52;;;;;;;30.67;11.27;;;5.10;99.90;;;;;;5036626;28;20207;-86
2022/02/24 09:18:17;;;;;;;35.57;12.60;;;5.00;99.90;;;;;;5019723;28;20593;-87
2022/02/24 09:20:43;;;;;;;34.53;11.90;;;5.10;99.90;;;;;;5019659;28;20180;-87
2022/02/24 09:23:10;;;;;;;25.50;8.90;;;5.20;99.90;;;;;;5037629;28;20204;-87
2022/02/24 09:25:36;;;;;;;23.97;8.03;;;5.20;99.90;;;;;;5019511;28;20547;-88
2022/02/24 09:28:02;;;;;;;25.40;7.33;;;5.20;99.90;;;;;;5003095;28;20236;-88
2022/02/24 09:30:28;;;;;;;18.43;8.10;;;5.40;99.90;;;;;;5014366;28;20180;-88
2022/02/24 09:32:55;;;;;;;19.97;7.63;;;5.40;99.90;;;;;;5000272;28;20188;-87
2022/02/24 09:35:21;;;;;;;31.63;9.80;;;2.80;99.90;;;;;;4997941;28;20223;-87
2022/02/24 09:37:47;;;;;;;25.87;8.90;;;5.60;99.90;;;;;;5014563;28;20541;-87
2022/02/24 09:40:14;;;;;;;25.73;7.87;;;5.70;99.90;;;;;;4996099;28;20189;-88
2022/02/24 09:42:41;;;;;;;23.40;8.43;;;5.70;99.90;;;;;;5012789;28;20228;-88
2022/02/24 09:45:08;;;;;;;25.07;7.83;;;5.80;99.90;;;;;;4996493;28;20283;-87
2022/02/24 09:47:37;;;;;;;26.97;10.23;;;5.80;99.90;;;;;;5013966;28;20718;-88
2022/02/24 09:50:04;;;;;;;27.63;8.97;;;5.90;99.90;;;;;;5015426;28;20323;-87
2022/02/24 09:52:29;;;;;;;29.10;10.23;;;6.00;99.90;;;;;;4996593;28;20196;-86
2022/02/24 09:54:55;;;;;;;29.60;11.47;;;6.20;99.90;;;;;;5017391;28;20217;-87
2022/02/24 09:57:21;;;;;;;23.20;7.83;;;6.00;99.90;;;;;;4997648;28;20185;-86
2022/02/24 09:59:47;;;;;;;27.03;9.97;;;6.10;99.90;;;;;;5013969;28;20184;-87
2022/02/24 10:02:15;;;;;;;32.97;10.60;;;3.50;99.90;;;;;;5014154;28;20195;-88
2022/02/24 10:05:06;;;;;;;29.50;10.90;;;6.20;99.90;;;;;;5012871;28;20251;-87
2022/02/24 10:07:35;;;;;;;26.20;9.07;;;6.30;99.90;;;;;;5013861;28;20176;-87
2022/02/24 10:10:21;;;;;;;28.77;9.73;;;6.50;99.90;;;;;;5014258;28;20178;-87
2022/02/24 10:13:08;;;;;;;37.83;12.17;;;6.70;99.90;;;;;;5014023;28;20689;-87
2022/02/24 10:15:38;;;;;;;19.63;8.83;;;6.80;99.90;;;;;;5015180;28;20204;-87
2022/02/24 10:18:15;;;;;;;20.63;7.33;;;6.90;99.90;;;;;;5012696;28;20188;-87
2022/02/24 10:20:50;;;;;;;21.20;6.73;;;6.90;99.90;;;;;;4996610;28;20181;-87
2022/02/24 10:23:17;;;;;;;31.43;9.53;;;7.00;99.90;;;;;;5013982;28;20177;-87
2022/02/24 10:25:47;;;;;;;43.70;15.70;;;7.20;99.90;;;;;;5013856;28;20238;-86
2022/02/24 10:28:51;;;;;;;29.37;7.93;;;7.20;99.90;;;;;;5045354;28;20223;-86
2022/02/24 10:31:24;;;;;;;29.50;9.57;;;7.40;99.90;;;;;;5035557;28;20636;-88
2022/02/24 10:34:10;;;;;;;30.63;9.33;;;7.50;99.90;;;;;;5035706;28;20187;-87
2022/02/24 10:36:38;;;;;;;34.23;9.27;;;7.60;99.90;;;;;;5054700;28;20211;-86
2022/02/24 10:39:13;;;;;;;27.27;10.63;;;7.70;99.90;;;;;;5057328;28;20633;-86
2022/02/24 10:41:40;;;;;;;18.60;6.97;;;7.80;99.90;;;;;;5057220;28;20246;-87
2022/02/24 10:44:23;;;;;;;25.83;8.13;;;7.80;99.90;;;;;;5057383;28;20236;-87
2022/02/24 10:47:10;;;;;;;24.50;9.93;;;7.70;99.90;;;;;;5039742;28;20527;-88
2022/02/24 10:49:49;;;;;;;27.57;7.97;;;7.70;99.90;;;;;;5038936;28;20176;-87
2022/02/24 10:52:17;;;;;;;18.23;7.43;;;7.80;99.90;;;;;;5039238;28;20184;-87
2022/02/24 10:54:59;;;;;;;26.80;9.47;;;7.90;99.90;;;;;;5039174;28;20180;-87
2022/02/24 10:57:27;;;;;;;22.30;8.73;;;8.00;99.90;;;;;;5038843;28;20172;-85
2022/02/24 10:59:54;;;;;;;19.90;6.40;;;8.00;99.90;;;;;;5060586;28;20183;-85
2022/02/24 11:02:21;;;;;;;20.00;7.03;;;8.10;99.90;;;;;;5033837;28;20226;-86
2022/02/24 11:04:48;;;;;;;24.83;7.97;;;;;;;;;;5072597;28;20172;-87
2022/02/24 11:07:13;;;;;;;18.07;6.80;;;7.90;99.90;;;;;;5067137;28;20183;-85
2022/02/24 11:09:41;;;;;;;19.87;7.10;;;8.00;99.90;;;;;;5060096;28;20547;-86
2022/02/24 11:12:11;;;;;;;22.57;7.00;;;8.00;99.90;;;;;;5041564;28;20657;-86
2022/02/24 11:14:39;;;;;;;20.47;6.73;;;8.00;99.90;;;;;;5056571;28;20191;-86
2022/02/24 11:17:07;;;;;;;16.43;6.87;;;8.00;99.90;;;;;;5056963;28;20248;-87
2022/02/24 11:19:35;;;;;;;20.23;7.13;;;7.90;99.90;;;;;;5040317;28;20196;-88
2022/02/24 11:22:01;;;;;;;19.97;6.00;;;8.00;99.90;;;;;;5039870;28;20191;-87
2022/02/24 11:24:28;;;;;;;21.07;7.30;;;;;;;;;;5057796;28;20239;-89
2022/02/24 11:27:18;;;;;;;18.20;6.17;;;8.00;99.90;;;;;;5039434;28;20235;-87
2022/02/24 11:29:49;;;;;;;16.93;6.30;;;7.90;99.90;;;;;;5058147;28;20171;-87
2022/02/24 11:32:18;;;;;;;16.17;6.20;;;7.90;99.90;;;;;;5038971;28;20215;-89
2022/02/24 11:35:06;;;;;;;19.30;5.40;;;8.10;99.90;;;;;;5039203;28;20267;-88
2022/02/24 11:37:36;;;;;;;19.23;6.10;;;8.10;99.90;;;;;;5040386;28;20210;-88
2022/02/24 11:40:02;;;;;;;19.17;5.77;;;;;;;;;;5056581;28;20289;-88
2022/02/24 11:42:30;;;;;;;15.23;5.03;;;8.30;99.90;;;;;;5039998;28;20738;-89
2022/02/24 11:44:59;;;;;;;17.00;6.13;;;8.30;99.90;;;;;;5029883;28;20195;-88
2022/02/24 11:47:25;;;;;;;13.17;5.60;;;;;;;;;;5055748;28;20168;-87
2022/02/24 11:49:53;;;;;;;13.80;5.60;;;8.40;99.90;;;;;;5046403;28;20218;-89
2022/02/24 11:52:26;;;;;;;15.10;5.23;;;8.60;99.90;;;;;;5040350;28;20184;-87
2022/02/24 11:54:52;;;;;;;12.43;5.30;;;8.80;99.90;;;;;;5039720;28;20263;-87
2022/02/24 11:57:36;;;;;;;18.03;6.20;;;9.10;99.90;;;;;;5056514;28;20180;-87
2022/02/24 12:00:18;;;;;;;15.73;4.30;;;9.40;99.90;;;;;;5056098;28;20526;-87
2022/02/24 12:02:46;;;;;;;15.07;5.17;;;9.50;99.90;;;;;;5007172;28;20194;-86
2022/02/24 12:05:26;;;;;;;18.03;5.07;;;9.50;99.90;;;;;;5038756;28;20225;-89
2022/02/24 12:08:02;;;;;;;23.30;6.70;;;9.50;99.90;;;;;;5056571;28;20168;-86
2022/02/24 12:10:46;;;;;;;20.43;6.10;;;9.40;99.90;;;;;;5038246;28;20655;-87
2022/02/24 12:13:27;;;;;;;26.30;8.00;;;9.30;99.90;;;;;;5055992;28;20174;-87
2022/02/24 12:16:14;;;;;;;23.50;7.20;;;9.40;99.90;;;;;;5057563;28;20751;-87
2022/02/24 12:18:42;;;;;;;23.17;7.27;;;9.50;99.90;;;;;;5022593;28;20194;-87
2022/02/24 12:21:30;;;;;;;19.50;6.50;;;9.80;99.90;;;;;;5038789;28;20593;-87
2022/02/24 12:23:58;;;;;;;24.83;6.37;;;9.80;99.90;;;;;;5037933;28;20175;-86
2022/02/24 12:26:41;;;;;;;17.33;5.97;;;9.80;99.90;;;;;;5037752;28;20659;-88
2022/02/24 12:29:39;;;;;;;19.27;4.77;;;9.80;99.90;;;;;;5055552;28;20240;-87
2022/02/24 12:32:06;;;;;;;14.60;4.93;;;9.90;99.90;;;;;;5056014;28;20173;-87
2022/02/24 12:34:34;;;;;;;19.93;5.67;;;10.30;99.90;;;;;;5005062;28;20187;-87
2022/02/24 12:37:18;;;;;;;19.23;5.67;;;10.50;99.90;;;;;;5005329;28;20222;-88
2022/02/24 12:39:43;;;;;;;13.47;5.17;;;10.50;97.80;;;;;;5037670;28;20242;-87
2022/02/24 12:42:11;;;;;;;17.20;4.23;;;10.30;98.00;;;;;;5037345;28;20629;-87
2022/02/24 12:44:39;;;;;;;13.43;4.60;;;10.00;98.00;;;;;;5037230;28;20179;-85
2022/02/24 12:47:06;;;;;;;25.40;6.13;;;9.70;99.90;;;;;;5055323;28;20641;-86
2022/02/24 12:49:42;;;;;;;17.50;5.83;;;9.70;99.90;;;;;;5055212;28;20184;-87
2022/02/24 12:52:08;;;;;;;20.93;7.00;;;10.10;99.90;;;;;;5056957;28;20635;-87
2022/02/24 12:54:35;;;;;;;20.00;6.93;;;10.70;99.90;;;;;;5061485;28;20184;-92
2022/02/24 12:57:04;;;;;;;24.70;8.50;;;11.80;93.30;;;;;;5061201;28;20275;-90
2022/02/24 12:59:30;;;;;;;16.43;6.07;;;11.70;92.80;;;;;;5041362;28;20172;-88
2022/02/24 13:01:55;;;;;;;19.73;7.80;;;11.90;90.80;;;;;;5078229;28;20207;-88
2022/02/24 13:04:24;;;;;;;20.90;6.90;;;11.80;90.30;;;;;;5061079;28;20163;-86